sensor_id;sensor_type;location;lat;lon;timestamp;P1;durP1;ratioP1;P2;durP2;ratioP2
36995;SDS011;22905;50.340;10.776;2022-09-17T00:00:18;12.20;;;4.43;;
36995;SDS011;22905;50.340;10.776;2022-09-17T00:05:19;12.50;;;4.47;;
36995;SDS011;22905;50.340;10.776;2022-09-17T00:10:19;5.28;;;4.45;;
36995;SDS011;22905;50.340;10.776;2022-09-17T00:15:19;6.47;;;4.80;;
36995;SDS011;22905;50.340;10.776;2022-09-17T00:20:20;9.82;;;4.35;;
36995;SDS011;22905;50.340;10.776;2022-09-17T00:25:20;10.18;;;4.55;;
36995;SDS011;22905;50.340;10.776;2022-09-17T00:30:21;7.70;;;4.50;;
36995;SDS011;22905;50.340;10.776;2022-09-17T00:35:22;7.32;;;4.45;;
36995;SDS011;22905;50.340;10.776;2022-09-17T00:40:23;6.72;;;4.40;;
36995;SDS011;22905;50.340;10.776;2022-09-17T00:45:24;8.27;;;4.35;;
36995;SDS011;22905;50.340;10.776;2022-09-17T00:50:29;6.85;;;4.10;;
36995;SDS011;22905;50.340;10.776;2022-09-17T00:55:37;8.45;;;4.18;;
36995;SDS011;22905;50.340;10.776;2022-09-17T01:00:39;8.80;;;4.38;;
36995;SDS011;22905;50.340;10.776;2022-09-17T01:05:43;7.75;;;3.40;;
36995;SDS011;22905;50.340;10.776;2022-09-17T01:32:27;10.80;;;4.30;;
36995;SDS011;22905;50.340;10.776;2022-09-17T01:43:08;23.75;;;7.03;;
36995;SDS011;22905;50.340;10.776;2022-09-17T01:48:19;7.30;;;4.35;;
36995;SDS011;22905;50.340;10.776;2022-09-17T01:53:21;13.48;;;5.45;;
36995;SDS011;22905;50.340;10.776;2022-09-17T01:58:25;13.30;;;5.40;;
36995;SDS011;22905;50.340;10.776;2022-09-17T02:09:00;13.68;;;5.13;;
36995;SDS011;22905;50.340;10.776;2022-09-17T02:14:06;10.48;;;5.65;;
36995;SDS011;22905;50.340;10.776;2022-09-17T02:19:15;7.45;;;5.28;;
36995;SDS011;22905;50.340;10.776;2022-09-17T02:24:24;13.70;;;5.82;;
36995;SDS011;22905;50.340;10.776;2022-09-17T02:29:42;8.68;;;6.07;;
36995;SDS011;22905;50.340;10.776;2022-09-17T02:34:43;17.67;;;6.45;;
36995;SDS011;22905;50.340;10.776;2022-09-17T02:39:43;19.48;;;6.15;;
36995;SDS011;22905;50.340;10.776;2022-09-17T02:44:59;13.00;;;6.30;;
36995;SDS011;22905;50.340;10.776;2022-09-17T02:50:45;16.08;;;7.40;;
36995;SDS011;22905;50.340;10.776;2022-09-17T02:56:04;16.13;;;6.55;;
36995;SDS011;22905;50.340;10.776;2022-09-17T03:01:08;10.90;;;7.00;;
36995;SDS011;22905;50.340;10.776;2022-09-17T03:06:13;16.63;;;6.68;;
36995;SDS011;22905;50.340;10.776;2022-09-17T03:11:14;12.80;;;6.27;;
36995;SDS011;22905;50.340;10.776;2022-09-17T03:16:14;12.00;;;6.20;;
36995;SDS011;22905;50.340;10.776;2022-09-17T03:21:14;17.30;;;7.23;;
36995;SDS011;22905;50.340;10.776;2022-09-17T03:26:15;19.87;;;7.40;;
36995;SDS011;22905;50.340;10.776;2022-09-17T03:31:15;12.52;;;5.85;;
36995;SDS011;22905;50.340;10.776;2022-09-17T03:36:15;11.65;;;6.03;;
36995;SDS011;22905;50.340;10.776;2022-09-17T03:41:16;10.23;;;6.00;;
36995;SDS011;22905;50.340;10.776;2022-09-17T03:46:16;9.05;;;5.57;;
36995;SDS011;22905;50.340;10.776;2022-09-17T03:51:17;11.82;;;5.35;;
36995;SDS011;22905;50.340;10.776;2022-09-17T03:56:17;11.77;;;4.32;;
36995;SDS011;22905;50.340;10.776;2022-09-17T04:01:17;14.07;;;4.70;;
36995;SDS011;22905;50.340;10.776;2022-09-17T04:06:18;10.52;;;4.38;;
36995;SDS011;22905;50.340;10.776;2022-09-17T04:11:18;9.90;;;6.30;;
36995;SDS011;22905;50.340;10.776;2022-09-17T04:16:18;6.77;;;3.10;;
36995;SDS011;22905;50.340;10.776;2022-09-17T04:21:19;8.05;;;3.33;;
36995;SDS011;22905;50.340;10.776;2022-09-17T04:26:19;7.70;;;3.55;;
36995;SDS011;22905;50.340;10.776;2022-09-17T04:31:19;6.68;;;3.95;;
36995;SDS011;22905;50.340;10.776;2022-09-17T04:36:21;6.53;;;3.05;;
36995;SDS011;22905;50.340;10.776;2022-09-17T04:41:21;3.72;;;2.50;;
36995;SDS011;22905;50.340;10.776;2022-09-17T04:46:22;14.43;;;3.70;;
36995;SDS011;22905;50.340;10.776;2022-09-17T04:51:22;2.88;;;2.67;;
36995;SDS011;22905;50.340;10.776;2022-09-17T04:56:22;3.90;;;2.80;;
36995;SDS011;22905;50.340;10.776;2022-09-17T05:01:22;4.43;;;2.33;;
36995;SDS011;22905;50.340;10.776;2022-09-17T05:06:23;2.63;;;2.30;;
36995;SDS011;22905;50.340;10.776;2022-09-17T05:11:23;5.13;;;2.90;;
36995;SDS011;22905;50.340;10.776;2022-09-17T05:16:23;2.42;;;2.15;;
36995;SDS011;22905;50.340;10.776;2022-09-17T05:21:24;4.22;;;2.60;;
36995;SDS011;22905;50.340;10.776;2022-09-17T05:26:24;5.50;;;2.80;;
36995;SDS011;22905;50.340;10.776;2022-09-17T05:31:24;3.45;;;2.70;;
36995;SDS011;22905;50.340;10.776;2022-09-17T05:36:25;6.43;;;2.38;;
36995;SDS011;22905;50.340;10.776;2022-09-17T05:41:25;2.60;;;2.23;;
36995;SDS011;22905;50.340;10.776;2022-09-17T05:46:25;4.70;;;2.63;;
36995;SDS011;22905;50.340;10.776;2022-09-17T05:51:25;2.80;;;2.47;;
36995;SDS011;22905;50.340;10.776;2022-09-17T05:56:26;3.23;;;2.50;;
36995;SDS011;22905;50.340;10.776;2022-09-17T06:01:26;4.47;;;2.47;;
36995;SDS011;22905;50.340;10.776;2022-09-17T06:06:27;2.63;;;2.20;;
36995;SDS011;22905;50.340;10.776;2022-09-17T06:11:29;4.75;;;3.10;;
36995;SDS011;22905;50.340;10.776;2022-09-17T06:16:30;5.38;;;2.25;;
36995;SDS011;22905;50.340;10.776;2022-09-17T06:21:30;2.50;;;2.03;;
36995;SDS011;22905;50.340;10.776;2022-09-17T06:26:31;2.92;;;2.10;;
36995;SDS011;22905;50.340;10.776;2022-09-17T06:31:31;3.70;;;1.55;;
36995;SDS011;22905;50.340;10.776;2022-09-17T06:36:31;3.85;;;1.83;;
36995;SDS011;22905;50.340;10.776;2022-09-17T06:41:32;3.10;;;2.45;;
36995;SDS011;22905;50.340;10.776;2022-09-17T06:46:32;5.50;;;2.00;;
36995;SDS011;22905;50.340;10.776;2022-09-17T06:51:32;3.83;;;1.90;;
36995;SDS011;22905;50.340;10.776;2022-09-17T06:56:33;3.93;;;2.13;;
36995;SDS011;22905;50.340;10.776;2022-09-17T07:01:33;4.27;;;2.23;;
36995;SDS011;22905;50.340;10.776;2022-09-17T07:06:33;2.90;;;1.58;;
36995;SDS011;22905;50.340;10.776;2022-09-17T07:11:33;3.53;;;1.98;;
36995;SDS011;22905;50.340;10.776;2022-09-17T07:16:34;9.02;;;3.47;;
36995;SDS011;22905;50.340;10.776;2022-09-17T07:21:35;3.58;;;1.92;;
36995;SDS011;22905;50.340;10.776;2022-09-17T07:26:35;5.37;;;1.90;;
36995;SDS011;22905;50.340;10.776;2022-09-17T07:31:36;5.60;;;2.38;;
36995;SDS011;22905;50.340;10.776;2022-09-17T07:36:36;9.50;;;2.70;;
36995;SDS011;22905;50.340;10.776;2022-09-17T07:41:36;16.87;;;3.00;;
36995;SDS011;22905;50.340;10.776;2022-09-17T07:46:37;9.13;;;2.63;;
36995;SDS011;22905;50.340;10.776;2022-09-17T07:51:37;5.78;;;2.63;;
36995;SDS011;22905;50.340;10.776;2022-09-17T07:56:37;7.10;;;2.77;;
36995;SDS011;22905;50.340;10.776;2022-09-17T08:01:38;8.33;;;2.20;;
36995;SDS011;22905;50.340;10.776;2022-09-17T08:06:38;13.43;;;2.90;;
36995;SDS011;22905;50.340;10.776;2022-09-17T08:11:40;10.23;;;3.17;;
36995;SDS011;22905;50.340;10.776;2022-09-17T08:16:40;11.57;;;2.55;;
36995;SDS011;22905;50.340;10.776;2022-09-17T08:21:41;13.27;;;2.75;;
36995;SDS011;22905;50.340;10.776;2022-09-17T08:26:41;12.52;;;2.50;;
36995;SDS011;22905;50.340;10.776;2022-09-17T08:31:42;11.50;;;3.00;;
36995;SDS011;22905;50.340;10.776;2022-09-17T08:36:42;12.48;;;3.22;;
36995;SDS011;22905;50.340;10.776;2022-09-17T08:41:51;24.33;;;3.45;;
36995;SDS011;22905;50.340;10.776;2022-09-17T08:46:57;9.05;;;2.95;;
36995;SDS011;22905;50.340;10.776;2022-09-17T08:52:08;15.60;;;3.28;;
36995;SDS011;22905;50.340;10.776;2022-09-17T09:08:03;17.00;;;2.92;;
36995;SDS011;22905;50.340;10.776;2022-09-17T09:13:05;13.32;;;2.80;;
36995;SDS011;22905;50.340;10.776;2022-09-17T09:18:12;12.88;;;2.70;;
36995;SDS011;22905;50.340;10.776;2022-09-17T09:23:18;9.90;;;3.13;;
36995;SDS011;22905;50.340;10.776;2022-09-17T09:33:46;11.32;;;2.83;;
36995;SDS011;22905;50.340;10.776;2022-09-17T09:39:10;18.27;;;2.03;;
36995;SDS011;22905;50.340;10.776;2022-09-17T09:49:29;11.82;;;2.60;;
36995;SDS011;22905;50.340;10.776;2022-09-17T09:54:51;7.45;;;3.13;;
36995;SDS011;22905;50.340;10.776;2022-09-17T10:00:21;11.63;;;2.10;;
36995;SDS011;22905;50.340;10.776;2022-09-17T10:05:22;17.17;;;3.50;;
36995;SDS011;22905;50.340;10.776;2022-09-17T10:10:22;12.35;;;2.90;;
36995;SDS011;22905;50.340;10.776;2022-09-17T10:15:24;10.35;;;2.50;;
36995;SDS011;22905;50.340;10.776;2022-09-17T10:20:26;11.77;;;2.55;;
36995;SDS011;22905;50.340;10.776;2022-09-17T10:25:31;8.27;;;2.90;;
36995;SDS011;22905;50.340;10.776;2022-09-17T10:30:32;7.22;;;2.55;;
36995;SDS011;22905;50.340;10.776;2022-09-17T10:35:34;8.40;;;4.22;;
36995;SDS011;22905;50.340;10.776;2022-09-17T10:40:34;12.43;;;2.60;;
36995;SDS011;22905;50.340;10.776;2022-09-17T10:45:34;4.53;;;2.03;;
36995;SDS011;22905;50.340;10.776;2022-09-17T10:50:36;10.38;;;3.72;;
36995;SDS011;22905;50.340;10.776;2022-09-17T10:55:44;9.40;;;2.20;;
36995;SDS011;22905;50.340;10.776;2022-09-17T11:11:40;9.27;;;2.47;;
36995;SDS011;22905;50.340;10.776;2022-09-17T11:38:28;3.42;;;0.98;;
36995;SDS011;22905;50.340;10.776;2022-09-17T11:43:35;1.95;;;1.00;;
36995;SDS011;22905;50.340;10.776;2022-09-17T11:48:38;2.83;;;0.82;;
36995;SDS011;22905;50.340;10.776;2022-09-17T11:59:02;7.30;;;1.60;;
36995;SDS011;22905;50.340;10.776;2022-09-17T12:09:59;6.53;;;2.00;;
36995;SDS011;22905;50.340;10.776;2022-09-17T12:15:19;4.45;;;2.35;;
36995;SDS011;22905;50.340;10.776;2022-09-17T12:20:29;6.88;;;1.60;;
36995;SDS011;22905;50.340;10.776;2022-09-17T12:25:32;1.98;;;1.30;;
36995;SDS011;22905;50.340;10.776;2022-09-17T12:30:43;7.18;;;2.85;;
36995;SDS011;22905;50.340;10.776;2022-09-17T12:51:48;4.97;;;2.38;;
36995;SDS011;22905;50.340;10.776;2022-09-17T13:02:19;5.85;;;1.77;;
36995;SDS011;22905;50.340;10.776;2022-09-17T13:07:30;6.68;;;2.22;;
36995;SDS011;22905;50.340;10.776;2022-09-17T13:12:56;9.38;;;3.55;;
36995;SDS011;22905;50.340;10.776;2022-09-17T13:18:13;9.43;;;2.38;;
36995;SDS011;22905;50.340;10.776;2022-09-17T13:23:54;4.38;;;1.63;;
36995;SDS011;22905;50.340;10.776;2022-09-17T13:28:54;1.15;;;0.63;;
36995;SDS011;22905;50.340;10.776;2022-09-17T13:33:58;3.53;;;1.15;;
36995;SDS011;22905;50.340;10.776;2022-09-17T13:39:00;10.60;;;4.53;;
36995;SDS011;22905;50.340;10.776;2022-09-17T13:44:02;7.30;;;1.20;;
36995;SDS011;22905;50.340;10.776;2022-09-17T13:49:13;5.85;;;1.80;;
36995;SDS011;22905;50.340;10.776;2022-09-17T13:54:15;17.02;;;6.22;;
36995;SDS011;22905;50.340;10.776;2022-09-17T13:59:20;10.95;;;3.60;;
36995;SDS011;22905;50.340;10.776;2022-09-17T14:09:33;16.40;;;4.35;;
36995;SDS011;22905;50.340;10.776;2022-09-17T14:14:47;3.67;;;1.40;;
36995;SDS011;22905;50.340;10.776;2022-09-17T14:19:51;4.82;;;1.67;;
36995;SDS011;22905;50.340;10.776;2022-09-17T14:30:02;2.88;;;1.02;;
36995;SDS011;22905;50.340;10.776;2022-09-17T14:35:11;3.47;;;0.98;;
36995;SDS011;22905;50.340;10.776;2022-09-17T14:40:17;6.43;;;1.33;;
36995;SDS011;22905;50.340;10.776;2022-09-17T14:45:26;4.03;;;1.30;;
36995;SDS011;22905;50.340;10.776;2022-09-17T14:50:27;7.47;;;1.10;;
36995;SDS011;22905;50.340;10.776;2022-09-17T14:55:31;1.92;;;0.80;;
36995;SDS011;22905;50.340;10.776;2022-09-17T15:00:35;18.70;;;2.38;;
36995;SDS011;22905;50.340;10.776;2022-09-17T15:05:37;3.97;;;0.85;;
36995;SDS011;22905;50.340;10.776;2022-09-17T15:15:51;12.52;;;3.65;;
36995;SDS011;22905;50.340;10.776;2022-09-17T15:20:53;11.48;;;3.95;;
36995;SDS011;22905;50.340;10.776;2022-09-17T15:25:55;6.97;;;2.15;;
36995;SDS011;22905;50.340;10.776;2022-09-17T15:30:56;6.78;;;2.75;;
36995;SDS011;22905;50.340;10.776;2022-09-17T15:35:58;9.40;;;1.55;;
36995;SDS011;22905;50.340;10.776;2022-09-17T15:46:24;3.83;;;1.63;;
36995;SDS011;22905;50.340;10.776;2022-09-17T15:51:27;5.22;;;2.30;;
36995;SDS011;22905;50.340;10.776;2022-09-17T16:06:44;6.10;;;2.58;;
36995;SDS011;22905;50.340;10.776;2022-09-17T16:11:47;6.35;;;2.72;;
36995;SDS011;22905;50.340;10.776;2022-09-17T16:16:47;2.03;;;1.30;;
36995;SDS011;22905;50.340;10.776;2022-09-17T16:21:48;1.95;;;0.82;;
36995;SDS011;22905;50.340;10.776;2022-09-17T16:26:48;2.55;;;1.20;;
36995;SDS011;22905;50.340;10.776;2022-09-17T16:31:48;1.20;;;1.10;;
36995;SDS011;22905;50.340;10.776;2022-09-17T16:36:49;1.85;;;0.90;;
36995;SDS011;22905;50.340;10.776;2022-09-17T16:41:50;4.40;;;1.75;;
36995;SDS011;22905;50.340;10.776;2022-09-17T16:46:50;2.17;;;1.65;;
36995;SDS011;22905;50.340;10.776;2022-09-17T16:51:50;4.72;;;0.90;;
36995;SDS011;22905;50.340;10.776;2022-09-17T16:56:50;5.30;;;1.00;;
36995;SDS011;22905;50.340;10.776;2022-09-17T17:01:51;5.40;;;3.08;;
36995;SDS011;22905;50.340;10.776;2022-09-17T17:06:51;2.90;;;1.33;;
36995;SDS011;22905;50.340;10.776;2022-09-17T17:11:52;2.70;;;1.57;;
36995;SDS011;22905;50.340;10.776;2022-09-17T17:16:52;1.83;;;1.30;;
36995;SDS011;22905;50.340;10.776;2022-09-17T17:21:53;8.20;;;3.00;;
36995;SDS011;22905;50.340;10.776;2022-09-17T17:26:53;6.55;;;1.30;;
36995;SDS011;22905;50.340;10.776;2022-09-17T17:31:53;2.00;;;1.60;;
36995;SDS011;22905;50.340;10.776;2022-09-17T17:36:54;5.22;;;1.83;;
36995;SDS011;22905;50.340;10.776;2022-09-17T17:41:54;3.97;;;1.30;;
36995;SDS011;22905;50.340;10.776;2022-09-17T17:46:55;8.15;;;1.55;;
36995;SDS011;22905;50.340;10.776;2022-09-17T17:51:55;5.32;;;1.27;;
36995;SDS011;22905;50.340;10.776;2022-09-17T17:56:56;5.82;;;2.45;;
36995;SDS011;22905;50.340;10.776;2022-09-17T18:01:56;4.43;;;1.60;;
36995;SDS011;22905;50.340;10.776;2022-09-17T18:06:56;2.77;;;1.20;;
36995;SDS011;22905;50.340;10.776;2022-09-17T18:11:57;3.30;;;0.90;;
36995;SDS011;22905;50.340;10.776;2022-09-17T18:16:57;2.92;;;1.35;;
36995;SDS011;22905;50.340;10.776;2022-09-17T18:21:57;3.60;;;1.23;;
36995;SDS011;22905;50.340;10.776;2022-09-17T18:26:58;3.80;;;1.47;;
36995;SDS011;22905;50.340;10.776;2022-09-17T18:31:58;2.63;;;1.83;;
36995;SDS011;22905;50.340;10.776;2022-09-17T18:36:59;1.48;;;1.13;;
36995;SDS011;22905;50.340;10.776;2022-09-17T18:41:59;3.47;;;3.03;;
36995;SDS011;22905;50.340;10.776;2022-09-17T18:46:59;1.80;;;1.00;;
36995;SDS011;22905;50.340;10.776;2022-09-17T18:52:00;2.38;;;0.90;;
36995;SDS011;22905;50.340;10.776;2022-09-17T18:57:01;3.97;;;1.40;;
36995;SDS011;22905;50.340;10.776;2022-09-17T19:02:01;4.50;;;1.60;;
36995;SDS011;22905;50.340;10.776;2022-09-17T19:07:01;5.07;;;1.80;;
36995;SDS011;22905;50.340;10.776;2022-09-17T19:12:02;4.13;;;1.10;;
36995;SDS011;22905;50.340;10.776;2022-09-17T19:17:02;1.27;;;1.05;;
36995;SDS011;22905;50.340;10.776;2022-09-17T19:22:03;2.20;;;1.00;;
36995;SDS011;22905;50.340;10.776;2022-09-17T19:27:03;3.70;;;0.98;;
36995;SDS011;22905;50.340;10.776;2022-09-17T19:32:04;1.25;;;1.05;;
36995;SDS011;22905;50.340;10.776;2022-09-17T19:37:04;2.58;;;1.27;;
36995;SDS011;22905;50.340;10.776;2022-09-17T19:42:05;4.55;;;0.95;;
36995;SDS011;22905;50.340;10.776;2022-09-17T19:47:05;1.83;;;1.48;;
36995;SDS011;22905;50.340;10.776;2022-09-17T19:52:06;4.30;;;1.10;;
36995;SDS011;22905;50.340;10.776;2022-09-17T19:57:06;2.72;;;1.00;;
36995;SDS011;22905;50.340;10.776;2022-09-17T20:02:08;4.97;;;1.00;;
36995;SDS011;22905;50.340;10.776;2022-09-17T20:07:10;1.42;;;1.17;;
36995;SDS011;22905;50.340;10.776;2022-09-17T20:12:10;7.80;;;1.60;;
36995;SDS011;22905;50.340;10.776;2022-09-17T20:17:11;3.63;;;1.35;;
36995;SDS011;22905;50.340;10.776;2022-09-17T20:22:12;4.22;;;1.67;;
36995;SDS011;22905;50.340;10.776;2022-09-17T20:27:12;4.80;;;1.10;;
36995;SDS011;22905;50.340;10.776;2022-09-17T20:32:12;3.67;;;0.90;;
36995;SDS011;22905;50.340;10.776;2022-09-17T20:37:13;4.40;;;0.73;;
36995;SDS011;22905;50.340;10.776;2022-09-17T20:42:13;2.60;;;1.30;;
36995;SDS011;22905;50.340;10.776;2022-09-17T20:47:14;5.07;;;1.52;;
36995;SDS011;22905;50.340;10.776;2022-09-17T20:52:14;1.70;;;0.85;;
36995;SDS011;22905;50.340;10.776;2022-09-17T20:57:15;8.43;;;1.00;;
36995;SDS011;22905;50.340;10.776;2022-09-17T21:02:15;3.70;;;0.90;;
36995;SDS011;22905;50.340;10.776;2022-09-17T21:07:18;2.10;;;1.33;;
36995;SDS011;22905;50.340;10.776;2022-09-17T21:12:19;4.18;;;1.13;;
36995;SDS011;22905;50.340;10.776;2022-09-17T21:17:19;2.63;;;1.02;;
36995;SDS011;22905;50.340;10.776;2022-09-17T21:22:19;4.38;;;0.98;;
36995;SDS011;22905;50.340;10.776;2022-09-17T21:27:20;3.58;;;1.17;;
36995;SDS011;22905;50.340;10.776;2022-09-17T21:32:20;4.35;;;1.27;;
36995;SDS011;22905;50.340;10.776;2022-09-17T21:37:21;3.10;;;1.02;;
36995;SDS011;22905;50.340;10.776;2022-09-17T21:42:21;6.07;;;1.55;;
36995;SDS011;22905;50.340;10.776;2022-09-17T21:47:21;3.50;;;1.38;;
36995;SDS011;22905;50.340;10.776;2022-09-17T21:52:21;5.95;;;1.30;;
36995;SDS011;22905;50.340;10.776;2022-09-17T21:57:22;9.57;;;2.77;;
36995;SDS011;22905;50.340;10.776;2022-09-17T22:02:22;3.30;;;1.10;;
36995;SDS011;22905;50.340;10.776;2022-09-17T22:07:23;6.30;;;1.30;;
36995;SDS011;22905;50.340;10.776;2022-09-17T22:12:23;5.60;;;1.40;;
36995;SDS011;22905;50.340;10.776;2022-09-17T22:17:23;5.18;;;1.65;;
36995;SDS011;22905;50.340;10.776;2022-09-17T22:22:25;6.90;;;2.28;;
36995;SDS011;22905;50.340;10.776;2022-09-17T22:27:25;7.43;;;1.95;;
36995;SDS011;22905;50.340;10.776;2022-09-17T22:32:25;2.60;;;1.17;;
36995;SDS011;22905;50.340;10.776;2022-09-17T22:37:27;5.35;;;2.25;;
36995;SDS011;22905;50.340;10.776;2022-09-17T22:42:27;7.68;;;3.58;;
36995;SDS011;22905;50.340;10.776;2022-09-17T22:47:28;2.75;;;1.08;;
36995;SDS011;22905;50.340;10.776;2022-09-17T22:52:28;6.97;;;1.20;;
36995;SDS011;22905;50.340;10.776;2022-09-17T22:57:29;2.45;;;1.30;;
36995;SDS011;22905;50.340;10.776;2022-09-17T23:02:29;2.83;;;1.13;;
36995;SDS011;22905;50.340;10.776;2022-09-17T23:07:29;2.65;;;1.38;;
36995;SDS011;22905;50.340;10.776;2022-09-17T23:12:30;4.38;;;1.20;;
36995;SDS011;22905;50.340;10.776;2022-09-17T23:17:30;4.43;;;1.10;;
36995;SDS011;22905;50.340;10.776;2022-09-17T23:22:30;2.87;;;1.20;;
36995;SDS011;22905;50.340;10.776;2022-09-17T23:27:31;6.70;;;1.73;;
36995;SDS011;22905;50.340;10.776;2022-09-17T23:32:31;7.47;;;1.60;;
36995;SDS011;22905;50.340;10.776;2022-09-17T23:37:31;6.93;;;1.17;;
36995;SDS011;22905;50.340;10.776;2022-09-17T23:42:35;3.33;;;1.50;;
36995;SDS011;22905;50.340;10.776;2022-09-17T23:47:35;3.30;;;1.20;;
36995;SDS011;22905;50.340;10.776;2022-09-17T23:52:35;4.88;;;1.45;;
36995;SDS011;22905;50.340;10.776;2022-09-17T23:57:36;7.65;;;1.52;;
